sensor_id;sensor_type;location;lat;lon;timestamp;P1;durP1;ratioP1;P2;durP2;ratioP2
65387;SDS011;51992;53.528;49.474;2023-06-26T00:00:26;49.78;;;21.27;;
65387;SDS011;51992;53.528;49.474;2023-06-26T00:02:52;54.08;;;22.65;;
65387;SDS011;51992;53.528;49.474;2023-06-26T00:05:19;45.65;;;19.33;;
65387;SDS011;51992;53.528;49.474;2023-06-26T00:07:45;57.90;;;24.70;;
65387;SDS011;51992;53.528;49.474;2023-06-26T00:10:11;53.00;;;23.20;;
65387;SDS011;51992;53.528;49.474;2023-06-26T00:12:38;62.47;;;22.02;;
65387;SDS011;51992;53.528;49.474;2023-06-26T00:15:04;46.85;;;19.65;;
65387;SDS011;51992;53.528;49.474;2023-06-26T00:17:31;19.38;;;9.55;;
65387;SDS011;51992;53.528;49.474;2023-06-26T00:20:02;7.40;;;4.93;;
65387;SDS011;51992;53.528;49.474;2023-06-26T00:22:30;8.65;;;5.47;;
65387;SDS011;51992;53.528;49.474;2023-06-26T00:24:57;13.18;;;4.82;;
65387;SDS011;51992;53.528;49.474;2023-06-26T00:27:23;17.38;;;9.02;;
65387;SDS011;51992;53.528;49.474;2023-06-26T00:29:49;42.65;;;17.92;;
65387;SDS011;51992;53.528;49.474;2023-06-26T00:32:18;43.58;;;19.73;;
65387;SDS011;51992;53.528;49.474;2023-06-26T00:34:44;30.80;;;15.57;;
65387;SDS011;51992;53.528;49.474;2023-06-26T00:37:12;40.75;;;17.23;;
65387;SDS011;51992;53.528;49.474;2023-06-26T00:39:38;37.20;;;16.55;;
65387;SDS011;51992;53.528;49.474;2023-06-26T00:42:06;44.20;;;19.38;;
65387;SDS011;51992;53.528;49.474;2023-06-26T00:44:32;55.33;;;23.02;;
65387;SDS011;51992;53.528;49.474;2023-06-26T00:46:59;55.15;;;21.65;;
65387;SDS011;51992;53.528;49.474;2023-06-26T00:49:26;42.55;;;18.73;;
65387;SDS011;51992;53.528;49.474;2023-06-26T00:51:52;39.92;;;17.50;;
65387;SDS011;51992;53.528;49.474;2023-06-26T00:54:19;38.63;;;18.08;;
65387;SDS011;51992;53.528;49.474;2023-06-26T00:56:46;29.58;;;13.40;;
65387;SDS011;51992;53.528;49.474;2023-06-26T00:59:13;21.23;;;10.63;;
65387;SDS011;51992;53.528;49.474;2023-06-26T01:01:40;23.23;;;11.18;;
65387;SDS011;51992;53.528;49.474;2023-06-26T01:04:06;31.88;;;12.82;;
65387;SDS011;51992;53.528;49.474;2023-06-26T01:06:33;30.25;;;15.13;;
65387;SDS011;51992;53.528;49.474;2023-06-26T01:09:02;24.08;;;13.27;;
65387;SDS011;51992;53.528;49.474;2023-06-26T01:11:29;34.75;;;14.68;;
65387;SDS011;51992;53.528;49.474;2023-06-26T01:13:55;29.75;;;13.50;;
65387;SDS011;51992;53.528;49.474;2023-06-26T01:16:23;32.05;;;14.98;;
65387;SDS011;51992;53.528;49.474;2023-06-26T01:18:49;30.13;;;14.13;;
65387;SDS011;51992;53.528;49.474;2023-06-26T01:21:15;30.15;;;13.85;;
65387;SDS011;51992;53.528;49.474;2023-06-26T01:23:49;22.63;;;9.40;;
65387;SDS011;51992;53.528;49.474;2023-06-26T01:26:23;17.77;;;9.25;;
65387;SDS011;51992;53.528;49.474;2023-06-26T01:28:52;24.55;;;10.38;;
65387;SDS011;51992;53.528;49.474;2023-06-26T01:31:19;20.58;;;9.63;;
65387;SDS011;51992;53.528;49.474;2023-06-26T01:33:46;25.90;;;11.18;;
65387;SDS011;51992;53.528;49.474;2023-06-26T01:36:12;24.83;;;11.38;;
65387;SDS011;51992;53.528;49.474;2023-06-26T01:38:39;26.75;;;12.13;;
65387;SDS011;51992;53.528;49.474;2023-06-26T01:41:05;26.48;;;13.43;;
65387;SDS011;51992;53.528;49.474;2023-06-26T01:46:10;33.38;;;15.52;;
65387;SDS011;51992;53.528;49.474;2023-06-26T01:51:25;19.08;;;9.48;;
65387;SDS011;51992;53.528;49.474;2023-06-26T01:53:53;31.02;;;12.85;;
65387;SDS011;51992;53.528;49.474;2023-06-26T01:56:20;27.85;;;12.60;;
65387;SDS011;51992;53.528;49.474;2023-06-26T01:58:48;24.60;;;10.85;;
65387;SDS011;51992;53.528;49.474;2023-06-26T02:01:15;26.00;;;12.07;;
65387;SDS011;51992;53.528;49.474;2023-06-26T02:03:42;23.17;;;10.77;;
65387;SDS011;51992;53.528;49.474;2023-06-26T02:06:08;21.77;;;9.23;;
65387;SDS011;51992;53.528;49.474;2023-06-26T02:08:35;23.48;;;10.88;;
65387;SDS011;51992;53.528;49.474;2023-06-26T02:11:01;28.15;;;11.63;;
65387;SDS011;51992;53.528;49.474;2023-06-26T02:13:28;31.75;;;14.48;;
65387;SDS011;51992;53.528;49.474;2023-06-26T02:15:54;42.22;;;16.88;;
65387;SDS011;51992;53.528;49.474;2023-06-26T02:18:21;39.53;;;18.20;;
65387;SDS011;51992;53.528;49.474;2023-06-26T02:20:48;42.00;;;19.52;;
65387;SDS011;51992;53.528;49.474;2023-06-26T02:23:14;41.58;;;16.60;;
65387;SDS011;51992;53.528;49.474;2023-06-26T02:25:41;46.67;;;18.60;;
65387;SDS011;51992;53.528;49.474;2023-06-26T02:28:07;31.80;;;14.85;;
65387;SDS011;51992;53.528;49.474;2023-06-26T02:30:33;39.28;;;17.73;;
65387;SDS011;51992;53.528;49.474;2023-06-26T02:32:59;39.38;;;18.40;;
65387;SDS011;51992;53.528;49.474;2023-06-26T02:35:26;33.00;;;14.93;;
65387;SDS011;51992;53.528;49.474;2023-06-26T02:37:52;32.17;;;15.57;;
65387;SDS011;51992;53.528;49.474;2023-06-26T02:40:18;38.00;;;16.38;;
65387;SDS011;51992;53.528;49.474;2023-06-26T02:42:44;28.10;;;12.85;;
65387;SDS011;51992;53.528;49.474;2023-06-26T02:45:11;36.70;;;16.67;;
65387;SDS011;51992;53.528;49.474;2023-06-26T02:47:38;39.22;;;15.15;;
65387;SDS011;51992;53.528;49.474;2023-06-26T02:50:06;50.90;;;20.50;;
65387;SDS011;51992;53.528;49.474;2023-06-26T02:52:32;37.47;;;15.55;;
65387;SDS011;51992;53.528;49.474;2023-06-26T02:54:58;25.30;;;10.75;;
65387;SDS011;51992;53.528;49.474;2023-06-26T02:57:25;35.22;;;16.10;;
65387;SDS011;51992;53.528;49.474;2023-06-26T02:59:51;30.33;;;11.13;;
65387;SDS011;51992;53.528;49.474;2023-06-26T03:02:17;21.65;;;10.25;;
65387;SDS011;51992;53.528;49.474;2023-06-26T03:04:44;19.63;;;9.90;;
65387;SDS011;51992;53.528;49.474;2023-06-26T03:07:10;27.92;;;9.48;;
65387;SDS011;51992;53.528;49.474;2023-06-26T03:09:36;26.85;;;9.70;;
65387;SDS011;51992;53.528;49.474;2023-06-26T03:12:03;23.55;;;8.95;;
65387;SDS011;51992;53.528;49.474;2023-06-26T03:14:29;30.02;;;10.25;;
65387;SDS011;51992;53.528;49.474;2023-06-26T03:16:57;21.83;;;9.07;;
65387;SDS011;51992;53.528;49.474;2023-06-26T03:19:24;19.08;;;8.88;;
65387;SDS011;51992;53.528;49.474;2023-06-26T03:21:51;10.98;;;6.40;;
65387;SDS011;51992;53.528;49.474;2023-06-26T03:24:17;18.60;;;8.43;;
65387;SDS011;51992;53.528;49.474;2023-06-26T03:26:43;18.60;;;8.82;;
65387;SDS011;51992;53.528;49.474;2023-06-26T03:29:09;9.57;;;5.70;;
65387;SDS011;51992;53.528;49.474;2023-06-26T03:31:36;19.23;;;8.70;;
65387;SDS011;51992;53.528;49.474;2023-06-26T03:34:02;22.08;;;9.57;;
65387;SDS011;51992;53.528;49.474;2023-06-26T03:36:29;13.60;;;5.97;;
65387;SDS011;51992;53.528;49.474;2023-06-26T03:38:55;12.68;;;6.68;;
65387;SDS011;51992;53.528;49.474;2023-06-26T03:41:23;12.82;;;6.68;;
65387;SDS011;51992;53.528;49.474;2023-06-26T03:43:49;20.20;;;9.05;;
65387;SDS011;51992;53.528;49.474;2023-06-26T03:46:17;34.03;;;12.38;;
65387;SDS011;51992;53.528;49.474;2023-06-26T03:48:43;28.35;;;10.00;;
65387;SDS011;51992;53.528;49.474;2023-06-26T03:51:09;24.13;;;8.70;;
65387;SDS011;51992;53.528;49.474;2023-06-26T03:53:36;13.45;;;6.45;;
65387;SDS011;51992;53.528;49.474;2023-06-26T03:56:02;20.60;;;8.77;;
65387;SDS011;51992;53.528;49.474;2023-06-26T03:58:28;16.75;;;8.40;;
65387;SDS011;51992;53.528;49.474;2023-06-26T04:00:55;22.77;;;10.00;;
65387;SDS011;51992;53.528;49.474;2023-06-26T04:03:21;20.58;;;8.82;;
65387;SDS011;51992;53.528;49.474;2023-06-26T04:05:47;19.38;;;9.02;;
65387;SDS011;51992;53.528;49.474;2023-06-26T04:08:14;11.18;;;6.38;;
65387;SDS011;51992;53.528;49.474;2023-06-26T04:10:40;13.98;;;6.72;;
65387;SDS011;51992;53.528;49.474;2023-06-26T04:13:07;16.60;;;7.28;;
65387;SDS011;51992;53.528;49.474;2023-06-26T04:15:33;13.68;;;7.10;;
65387;SDS011;51992;53.528;49.474;2023-06-26T04:17:59;28.48;;;12.18;;
65387;SDS011;51992;53.528;49.474;2023-06-26T04:20:26;24.33;;;9.73;;
65387;SDS011;51992;53.528;49.474;2023-06-26T04:22:52;27.73;;;9.85;;
65387;SDS011;51992;53.528;49.474;2023-06-26T04:25:18;14.82;;;7.10;;
65387;SDS011;51992;53.528;49.474;2023-06-26T04:27:45;9.38;;;5.60;;
65387;SDS011;51992;53.528;49.474;2023-06-26T04:30:11;9.88;;;5.57;;
65387;SDS011;51992;53.528;49.474;2023-06-26T04:32:38;21.77;;;8.38;;
65387;SDS011;51992;53.528;49.474;2023-06-26T04:35:04;11.98;;;6.35;;
65387;SDS011;51992;53.528;49.474;2023-06-26T04:37:30;17.92;;;7.43;;
65387;SDS011;51992;53.528;49.474;2023-06-26T04:39:57;14.45;;;6.55;;
65387;SDS011;51992;53.528;49.474;2023-06-26T04:42:23;28.88;;;8.15;;
65387;SDS011;51992;53.528;49.474;2023-06-26T04:44:50;20.52;;;8.25;;
65387;SDS011;51992;53.528;49.474;2023-06-26T04:47:16;13.98;;;6.60;;
65387;SDS011;51992;53.528;49.474;2023-06-26T04:49:42;25.23;;;8.43;;
65387;SDS011;51992;53.528;49.474;2023-06-26T04:52:12;27.30;;;8.75;;
65387;SDS011;51992;53.528;49.474;2023-06-26T04:54:39;14.60;;;7.32;;
65387;SDS011;51992;53.528;49.474;2023-06-26T04:57:05;12.60;;;6.97;;
65387;SDS011;51992;53.528;49.474;2023-06-26T04:59:32;16.30;;;6.78;;
65387;SDS011;51992;53.528;49.474;2023-06-26T05:01:58;9.05;;;5.00;;
65387;SDS011;51992;53.528;49.474;2023-06-26T05:04:25;11.32;;;6.00;;
65387;SDS011;51992;53.528;49.474;2023-06-26T05:06:51;24.55;;;9.55;;
65387;SDS011;51992;53.528;49.474;2023-06-26T05:09:17;12.20;;;5.95;;
65387;SDS011;51992;53.528;49.474;2023-06-26T05:11:44;8.27;;;5.63;;
65387;SDS011;51992;53.528;49.474;2023-06-26T05:14:10;14.63;;;5.63;;
65387;SDS011;51992;53.528;49.474;2023-06-26T05:16:38;7.57;;;5.30;;
65387;SDS011;51992;53.528;49.474;2023-06-26T05:19:04;9.80;;;5.32;;
65387;SDS011;51992;53.528;49.474;2023-06-26T05:21:30;14.00;;;5.70;;
65387;SDS011;51992;53.528;49.474;2023-06-26T05:23:57;11.55;;;5.10;;
65387;SDS011;51992;53.528;49.474;2023-06-26T05:26:24;10.15;;;5.30;;
65387;SDS011;51992;53.528;49.474;2023-06-26T05:28:50;5.63;;;4.10;;
65387;SDS011;51992;53.528;49.474;2023-06-26T05:31:17;10.23;;;4.60;;
65387;SDS011;51992;53.528;49.474;2023-06-26T05:33:44;9.38;;;4.65;;
65387;SDS011;51992;53.528;49.474;2023-06-26T05:36:11;10.27;;;5.50;;
65387;SDS011;51992;53.528;49.474;2023-06-26T05:38:38;6.18;;;4.90;;
65387;SDS011;51992;53.528;49.474;2023-06-26T05:41:23;15.43;;;5.15;;
65387;SDS011;51992;53.528;49.474;2023-06-26T05:44:10;9.60;;;4.80;;
65387;SDS011;51992;53.528;49.474;2023-06-26T05:46:45;14.05;;;5.82;;
65387;SDS011;51992;53.528;49.474;2023-06-26T05:49:30;9.07;;;5.82;;
65387;SDS011;51992;53.528;49.474;2023-06-26T05:51:57;9.90;;;4.85;;
65387;SDS011;51992;53.528;49.474;2023-06-26T05:54:23;11.02;;;4.97;;
65387;SDS011;51992;53.528;49.474;2023-06-26T05:56:51;19.13;;;6.25;;
65387;SDS011;51992;53.528;49.474;2023-06-26T05:59:22;9.10;;;5.20;;
65387;SDS011;51992;53.528;49.474;2023-06-26T06:01:48;24.40;;;9.52;;
65387;SDS011;51992;53.528;49.474;2023-06-26T06:04:15;6.65;;;5.20;;
65387;SDS011;51992;53.528;49.474;2023-06-26T06:06:41;17.23;;;6.00;;
65387;SDS011;51992;53.528;49.474;2023-06-26T06:09:07;8.88;;;5.05;;
65387;SDS011;51992;53.528;49.474;2023-06-26T06:11:34;15.63;;;6.95;;
65387;SDS011;51992;53.528;49.474;2023-06-26T06:14:00;16.45;;;6.70;;
65387;SDS011;51992;53.528;49.474;2023-06-26T06:16:26;11.20;;;5.20;;
65387;SDS011;51992;53.528;49.474;2023-06-26T06:18:55;7.22;;;5.43;;
65387;SDS011;51992;53.528;49.474;2023-06-26T06:21:21;6.75;;;4.68;;
65387;SDS011;51992;53.528;49.474;2023-06-26T06:23:47;7.30;;;4.05;;
65387;SDS011;51992;53.528;49.474;2023-06-26T06:26:14;7.90;;;4.70;;
65387;SDS011;51992;53.528;49.474;2023-06-26T06:28:40;11.35;;;5.20;;
65387;SDS011;51992;53.528;49.474;2023-06-26T06:31:06;27.88;;;6.15;;
65387;SDS011;51992;53.528;49.474;2023-06-26T06:33:33;11.95;;;5.03;;
65387;SDS011;51992;53.528;49.474;2023-06-26T06:36:00;10.57;;;5.32;;
65387;SDS011;51992;53.528;49.474;2023-06-26T06:38:26;10.15;;;5.13;;
65387;SDS011;51992;53.528;49.474;2023-06-26T06:40:52;10.98;;;6.13;;
65387;SDS011;51992;53.528;49.474;2023-06-26T06:43:19;24.75;;;6.90;;
65387;SDS011;51992;53.528;49.474;2023-06-26T06:45:45;9.32;;;4.03;;
65387;SDS011;51992;53.528;49.474;2023-06-26T06:48:11;7.28;;;4.82;;
65387;SDS011;51992;53.528;49.474;2023-06-26T06:50:38;6.63;;;4.63;;
65387;SDS011;51992;53.528;49.474;2023-06-26T06:53:04;27.42;;;6.15;;
65387;SDS011;51992;53.528;49.474;2023-06-26T06:55:30;8.90;;;5.60;;
65387;SDS011;51992;53.528;49.474;2023-06-26T06:57:57;8.15;;;4.72;;
65387;SDS011;51992;53.528;49.474;2023-06-26T07:00:23;9.25;;;5.10;;
65387;SDS011;51992;53.528;49.474;2023-06-26T07:02:49;12.38;;;5.43;;
65387;SDS011;51992;53.528;49.474;2023-06-26T07:05:16;16.92;;;6.75;;
65387;SDS011;51992;53.528;49.474;2023-06-26T07:07:42;18.73;;;6.43;;
65387;SDS011;51992;53.528;49.474;2023-06-26T07:10:10;14.32;;;5.78;;
65387;SDS011;51992;53.528;49.474;2023-06-26T07:12:36;17.27;;;6.43;;
65387;SDS011;51992;53.528;49.474;2023-06-26T07:15:04;14.88;;;5.25;;
65387;SDS011;51992;53.528;49.474;2023-06-26T07:17:34;11.20;;;4.88;;
65387;SDS011;51992;53.528;49.474;2023-06-26T07:20:01;6.50;;;4.20;;
65387;SDS011;51992;53.528;49.474;2023-06-26T07:22:32;7.07;;;4.43;;
65387;SDS011;51992;53.528;49.474;2023-06-26T07:25:06;10.27;;;4.57;;
65387;SDS011;51992;53.528;49.474;2023-06-26T07:27:35;14.77;;;4.90;;
65387;SDS011;51992;53.528;49.474;2023-06-26T07:30:03;6.72;;;4.65;;
65387;SDS011;51992;53.528;49.474;2023-06-26T07:32:31;28.77;;;7.43;;
65387;SDS011;51992;53.528;49.474;2023-06-26T07:34:57;18.48;;;6.50;;
65387;SDS011;51992;53.528;49.474;2023-06-26T07:37:23;8.20;;;4.82;;
65387;SDS011;51992;53.528;49.474;2023-06-26T07:39:50;10.00;;;6.05;;
65387;SDS011;51992;53.528;49.474;2023-06-26T07:42:16;14.23;;;8.13;;
65387;SDS011;51992;53.528;49.474;2023-06-26T07:44:43;30.73;;;8.23;;
65387;SDS011;51992;53.528;49.474;2023-06-26T07:47:09;20.08;;;5.60;;
65387;SDS011;51992;53.528;49.474;2023-06-26T07:49:35;19.98;;;5.82;;
65387;SDS011;51992;53.528;49.474;2023-06-26T07:52:03;9.68;;;4.57;;
65387;SDS011;51992;53.528;49.474;2023-06-26T07:54:29;10.00;;;4.75;;
65387;SDS011;51992;53.528;49.474;2023-06-26T07:56:59;22.17;;;4.90;;
65387;SDS011;51992;53.528;49.474;2023-06-26T07:59:26;20.60;;;6.30;;
65387;SDS011;51992;53.528;49.474;2023-06-26T08:01:53;4.57;;;3.88;;
65387;SDS011;51992;53.528;49.474;2023-06-26T08:04:20;7.90;;;4.15;;
65387;SDS011;51992;53.528;49.474;2023-06-26T08:06:51;6.60;;;3.97;;
65387;SDS011;51992;53.528;49.474;2023-06-26T08:09:18;8.70;;;4.90;;
65387;SDS011;51992;53.528;49.474;2023-06-26T08:11:45;18.67;;;8.85;;
65387;SDS011;51992;53.528;49.474;2023-06-26T08:14:11;13.25;;;4.80;;
65387;SDS011;51992;53.528;49.474;2023-06-26T08:16:38;13.18;;;4.75;;
65387;SDS011;51992;53.528;49.474;2023-06-26T08:19:05;7.28;;;4.50;;
65387;SDS011;51992;53.528;49.474;2023-06-26T08:21:32;9.82;;;5.55;;
65387;SDS011;51992;53.528;49.474;2023-06-26T08:23:59;10.40;;;6.35;;
65387;SDS011;51992;53.528;49.474;2023-06-26T08:26:25;24.98;;;10.35;;
65387;SDS011;51992;53.528;49.474;2023-06-26T08:28:51;23.13;;;10.70;;
65387;SDS011;51992;53.528;49.474;2023-06-26T08:31:18;27.42;;;7.80;;
65387;SDS011;51992;53.528;49.474;2023-06-26T08:33:44;12.00;;;5.97;;
65387;SDS011;51992;53.528;49.474;2023-06-26T08:36:11;7.22;;;4.85;;
65387;SDS011;51992;53.528;49.474;2023-06-26T08:38:37;4.30;;;3.88;;
65387;SDS011;51992;53.528;49.474;2023-06-26T08:41:08;11.60;;;4.65;;
65387;SDS011;51992;53.528;49.474;2023-06-26T08:43:35;11.48;;;5.80;;
65387;SDS011;51992;53.528;49.474;2023-06-26T08:46:02;22.75;;;9.63;;
65387;SDS011;51992;53.528;49.474;2023-06-26T08:48:31;32.55;;;10.65;;
65387;SDS011;51992;53.528;49.474;2023-06-26T08:51:01;6.78;;;5.03;;
65387;SDS011;51992;53.528;49.474;2023-06-26T08:56:00;11.13;;;5.57;;
65387;SDS011;51992;53.528;49.474;2023-06-26T08:58:27;14.15;;;5.20;;
65387;SDS011;51992;53.528;49.474;2023-06-26T09:00:53;8.70;;;5.10;;
65387;SDS011;51992;53.528;49.474;2023-06-26T09:03:22;9.77;;;5.85;;
65387;SDS011;51992;53.528;49.474;2023-06-26T09:05:54;10.02;;;6.55;;
65387;SDS011;51992;53.528;49.474;2023-06-26T09:08:20;12.57;;;5.93;;
65387;SDS011;51992;53.528;49.474;2023-06-26T09:10:49;9.23;;;5.82;;
65387;SDS011;51992;53.528;49.474;2023-06-26T09:13:16;12.52;;;7.18;;
65387;SDS011;51992;53.528;49.474;2023-06-26T09:15:46;18.13;;;7.22;;
65387;SDS011;51992;53.528;49.474;2023-06-26T09:18:17;23.75;;;7.63;;
65387;SDS011;51992;53.528;49.474;2023-06-26T09:20:47;29.70;;;8.23;;
65387;SDS011;51992;53.528;49.474;2023-06-26T09:23:21;17.77;;;7.85;;
65387;SDS011;51992;53.528;49.474;2023-06-26T09:25:51;11.05;;;6.10;;
65387;SDS011;51992;53.528;49.474;2023-06-26T09:28:18;5.35;;;4.22;;
65387;SDS011;51992;53.528;49.474;2023-06-26T09:30:45;7.30;;;5.25;;
65387;SDS011;51992;53.528;49.474;2023-06-26T09:33:15;29.58;;;11.35;;
65387;SDS011;51992;53.528;49.474;2023-06-26T09:35:45;21.55;;;8.07;;
65387;SDS011;51992;53.528;49.474;2023-06-26T09:38:17;19.00;;;10.13;;
65387;SDS011;51992;53.528;49.474;2023-06-26T09:40:48;25.60;;;9.27;;
65387;SDS011;51992;53.528;49.474;2023-06-26T09:43:16;16.83;;;7.32;;
65387;SDS011;51992;53.528;49.474;2023-06-26T09:45:46;8.75;;;4.97;;
65387;SDS011;51992;53.528;49.474;2023-06-26T09:48:13;36.67;;;12.25;;
65387;SDS011;51992;53.528;49.474;2023-06-26T09:50:43;18.20;;;8.45;;
65387;SDS011;51992;53.528;49.474;2023-06-26T09:53:13;5.80;;;4.53;;
65387;SDS011;51992;53.528;49.474;2023-06-26T09:55:41;16.08;;;6.43;;
65387;SDS011;51992;53.528;49.474;2023-06-26T09:58:30;36.35;;;9.05;;
65387;SDS011;51992;53.528;49.474;2023-06-26T10:01:08;15.60;;;6.18;;
65387;SDS011;51992;53.528;49.474;2023-06-26T10:03:41;15.30;;;5.80;;
65387;SDS011;51992;53.528;49.474;2023-06-26T10:06:09;23.23;;;5.60;;
65387;SDS011;51992;53.528;49.474;2023-06-26T10:08:39;24.48;;;7.65;;
65387;SDS011;51992;53.528;49.474;2023-06-26T10:11:11;33.08;;;12.07;;
65387;SDS011;51992;53.528;49.474;2023-06-26T10:13:42;19.95;;;7.97;;
65387;SDS011;51992;53.528;49.474;2023-06-26T10:16:12;12.32;;;5.40;;
65387;SDS011;51992;53.528;49.474;2023-06-26T10:18:40;18.35;;;6.75;;
65387;SDS011;51992;53.528;49.474;2023-06-26T10:21:10;15.25;;;6.40;;
65387;SDS011;51992;53.528;49.474;2023-06-26T10:23:38;7.85;;;5.75;;
65387;SDS011;51992;53.528;49.474;2023-06-26T10:26:06;18.45;;;5.80;;
65387;SDS011;51992;53.528;49.474;2023-06-26T10:28:35;6.30;;;4.55;;
65387;SDS011;51992;53.528;49.474;2023-06-26T10:31:04;16.90;;;7.47;;
65387;SDS011;51992;53.528;49.474;2023-06-26T10:33:39;24.40;;;6.75;;
65387;SDS011;51992;53.528;49.474;2023-06-26T10:36:14;14.95;;;5.60;;
65387;SDS011;51992;53.528;49.474;2023-06-26T10:38:51;16.42;;;6.60;;
65387;SDS011;51992;53.528;49.474;2023-06-26T10:41:20;9.57;;;4.30;;
65387;SDS011;51992;53.528;49.474;2023-06-26T10:46:53;10.77;;;5.00;;
65387;SDS011;51992;53.528;49.474;2023-06-26T10:49:25;11.00;;;6.25;;
65387;SDS011;51992;53.528;49.474;2023-06-26T10:51:55;27.58;;;9.77;;
65387;SDS011;51992;53.528;49.474;2023-06-26T10:54:30;41.28;;;9.10;;
65387;SDS011;51992;53.528;49.474;2023-06-26T10:56:56;25.23;;;10.43;;
65387;SDS011;51992;53.528;49.474;2023-06-26T10:59:33;16.38;;;5.70;;
65387;SDS011;51992;53.528;49.474;2023-06-26T11:02:00;17.05;;;6.40;;
65387;SDS011;51992;53.528;49.474;2023-06-26T11:04:36;15.82;;;7.00;;
65387;SDS011;51992;53.528;49.474;2023-06-26T11:09:30;21.42;;;10.52;;
65387;SDS011;51992;53.528;49.474;2023-06-26T11:11:58;32.35;;;13.18;;
65387;SDS011;51992;53.528;49.474;2023-06-26T11:14:27;14.45;;;6.80;;
65387;SDS011;51992;53.528;49.474;2023-06-26T11:16:56;16.02;;;8.13;;
65387;SDS011;51992;53.528;49.474;2023-06-26T11:19:29;17.83;;;8.50;;
65387;SDS011;51992;53.528;49.474;2023-06-26T11:21:59;32.97;;;12.02;;
65387;SDS011;51992;53.528;49.474;2023-06-26T11:24:27;15.43;;;6.57;;
65387;SDS011;51992;53.528;49.474;2023-06-26T11:27:00;17.33;;;7.80;;
65387;SDS011;51992;53.528;49.474;2023-06-26T11:29:28;6.63;;;4.55;;
65387;SDS011;51992;53.528;49.474;2023-06-26T11:32:02;4.78;;;3.60;;
65387;SDS011;51992;53.528;49.474;2023-06-26T11:34:31;16.15;;;7.05;;
65387;SDS011;51992;53.528;49.474;2023-06-26T11:36:59;19.58;;;5.63;;
65387;SDS011;51992;53.528;49.474;2023-06-26T11:39:27;7.70;;;4.05;;
65387;SDS011;51992;53.528;49.474;2023-06-26T11:41:58;18.10;;;4.75;;
65387;SDS011;51992;53.528;49.474;2023-06-26T11:44:25;27.27;;;5.90;;
65387;SDS011;51992;53.528;49.474;2023-06-26T11:46:58;17.00;;;5.13;;
65387;SDS011;51992;53.528;49.474;2023-06-26T11:49:24;14.80;;;6.00;;
65387;SDS011;51992;53.528;49.474;2023-06-26T11:51:53;24.13;;;11.90;;
65387;SDS011;51992;53.528;49.474;2023-06-26T11:54:27;15.48;;;6.97;;
65387;SDS011;51992;53.528;49.474;2023-06-26T11:56:56;16.17;;;4.50;;
65387;SDS011;51992;53.528;49.474;2023-06-26T11:59:35;10.82;;;5.50;;
65387;SDS011;51992;53.528;49.474;2023-06-26T12:02:07;16.10;;;5.03;;
65387;SDS011;51992;53.528;49.474;2023-06-26T12:04:43;9.18;;;6.18;;
65387;SDS011;51992;53.528;49.474;2023-06-26T12:07:10;17.38;;;5.72;;
65387;SDS011;51992;53.528;49.474;2023-06-26T12:09:43;20.50;;;5.40;;
65387;SDS011;51992;53.528;49.474;2023-06-26T12:12:17;13.93;;;5.00;;
65387;SDS011;51992;53.528;49.474;2023-06-26T12:14:44;12.13;;;5.47;;
65387;SDS011;51992;53.528;49.474;2023-06-26T12:17:14;16.33;;;8.05;;
65387;SDS011;51992;53.528;49.474;2023-06-26T12:19:45;18.98;;;7.25;;
65387;SDS011;51992;53.528;49.474;2023-06-26T12:22:16;22.98;;;8.23;;
65387;SDS011;51992;53.528;49.474;2023-06-26T12:24:48;17.05;;;6.13;;
65387;SDS011;51992;53.528;49.474;2023-06-26T12:27:17;32.83;;;11.27;;
65387;SDS011;51992;53.528;49.474;2023-06-26T12:29:53;15.40;;;5.45;;
65387;SDS011;51992;53.528;49.474;2023-06-26T12:32:25;12.02;;;4.80;;
65387;SDS011;51992;53.528;49.474;2023-06-26T12:34:56;13.82;;;4.10;;
65387;SDS011;51992;53.528;49.474;2023-06-26T12:37:36;11.90;;;3.70;;
65387;SDS011;51992;53.528;49.474;2023-06-26T12:40:15;7.70;;;4.18;;
65387;SDS011;51992;53.528;49.474;2023-06-26T12:42:44;18.65;;;5.38;;
65387;SDS011;51992;53.528;49.474;2023-06-26T12:45:17;8.20;;;3.28;;
65387;SDS011;51992;53.528;49.474;2023-06-26T12:47:44;8.45;;;3.13;;
65387;SDS011;51992;53.528;49.474;2023-06-26T12:50:14;18.10;;;7.03;;
65387;SDS011;51992;53.528;49.474;2023-06-26T12:52:46;17.50;;;4.70;;
65387;SDS011;51992;53.528;49.474;2023-06-26T12:55:12;6.90;;;2.80;;
65387;SDS011;51992;53.528;49.474;2023-06-26T12:57:42;9.55;;;3.42;;
65387;SDS011;51992;53.528;49.474;2023-06-26T13:00:10;11.88;;;3.83;;
65387;SDS011;51992;53.528;49.474;2023-06-26T13:02:38;22.13;;;5.68;;
65387;SDS011;51992;53.528;49.474;2023-06-26T13:05:05;6.82;;;3.05;;
65387;SDS011;51992;53.528;49.474;2023-06-26T13:07:31;15.35;;;7.00;;
65387;SDS011;51992;53.528;49.474;2023-06-26T13:10:02;30.52;;;8.50;;
65387;SDS011;51992;53.528;49.474;2023-06-26T13:12:31;23.30;;;6.90;;
65387;SDS011;51992;53.528;49.474;2023-06-26T13:15:00;15.63;;;4.93;;
65387;SDS011;51992;53.528;49.474;2023-06-26T13:17:27;8.95;;;3.08;;
65387;SDS011;51992;53.528;49.474;2023-06-26T13:19:56;18.40;;;6.05;;
65387;SDS011;51992;53.528;49.474;2023-06-26T13:22:23;11.27;;;4.50;;
65387;SDS011;51992;53.528;49.474;2023-06-26T13:24:53;13.07;;;4.85;;
65387;SDS011;51992;53.528;49.474;2023-06-26T13:27:21;15.80;;;5.93;;
65387;SDS011;51992;53.528;49.474;2023-06-26T13:29:48;13.07;;;6.47;;
65387;SDS011;51992;53.528;49.474;2023-06-26T13:32:16;13.48;;;6.13;;
65387;SDS011;51992;53.528;49.474;2023-06-26T13:34:44;23.25;;;6.78;;
65387;SDS011;51992;53.528;49.474;2023-06-26T13:37:11;12.50;;;4.97;;
65387;SDS011;51992;53.528;49.474;2023-06-26T13:39:41;21.90;;;6.30;;
65387;SDS011;51992;53.528;49.474;2023-06-26T13:42:16;12.32;;;5.40;;
65387;SDS011;51992;53.528;49.474;2023-06-26T13:47:13;30.13;;;11.20;;
65387;SDS011;51992;53.528;49.474;2023-06-26T13:49:45;11.80;;;5.20;;
65387;SDS011;51992;53.528;49.474;2023-06-26T13:52:15;9.07;;;3.63;;
65387;SDS011;51992;53.528;49.474;2023-06-26T13:54:46;17.25;;;6.97;;
65387;SDS011;51992;53.528;49.474;2023-06-26T13:57:15;22.65;;;7.82;;
65387;SDS011;51992;53.528;49.474;2023-06-26T13:59:42;32.35;;;7.80;;
65387;SDS011;51992;53.528;49.474;2023-06-26T14:02:09;13.40;;;5.05;;
65387;SDS011;51992;53.528;49.474;2023-06-26T14:04:35;8.25;;;3.85;;
65387;SDS011;51992;53.528;49.474;2023-06-26T14:07:03;6.95;;;3.03;;
65387;SDS011;51992;53.528;49.474;2023-06-26T14:09:31;9.10;;;3.95;;
65387;SDS011;51992;53.528;49.474;2023-06-26T14:11:59;7.28;;;3.28;;
65387;SDS011;51992;53.528;49.474;2023-06-26T14:14:26;4.90;;;2.92;;
65387;SDS011;51992;53.528;49.474;2023-06-26T14:16:53;3.88;;;2.70;;
65387;SDS011;51992;53.528;49.474;2023-06-26T14:19:20;5.72;;;4.03;;
65387;SDS011;51992;53.528;49.474;2023-06-26T14:21:49;13.57;;;4.40;;
65387;SDS011;51992;53.528;49.474;2023-06-26T14:24:21;17.40;;;4.82;;
65387;SDS011;51992;53.528;49.474;2023-06-26T14:26:48;11.70;;;4.55;;
65387;SDS011;51992;53.528;49.474;2023-06-26T14:29:16;22.08;;;6.00;;
65387;SDS011;51992;53.528;49.474;2023-06-26T14:31:45;5.78;;;3.63;;
65387;SDS011;51992;53.528;49.474;2023-06-26T14:34:11;9.98;;;3.60;;
65387;SDS011;51992;53.528;49.474;2023-06-26T14:36:41;5.85;;;3.00;;
65387;SDS011;51992;53.528;49.474;2023-06-26T14:39:07;35.67;;;5.65;;
65387;SDS011;51992;53.528;49.474;2023-06-26T14:41:42;8.13;;;3.70;;